Time;durP1;ratioP1;P1;durP2;ratioP2;P2;SDS_P1;SDS_P2;PMS_P1;PMS_P2;Temp;Humidity;BMP_temperature;BMP_pressure;BME280_temperature;BME280_humidity;BME280_pressure;Samples;Min_cycle;Max_cycle;Signal;HPM_P1;HPM_P2
2021/11/19 00:02:31;;;;;;;5.60;4.57;;;;;;;6.58;66.13;98730.25;6218034;28;20536;-67
2021/11/19 00:05:33;;;;;;;4.77;4.17;;;;;;;6.55;65.87;98731.25;6217560;28;20526;-66
2021/11/19 00:08:36;;;;;;;5.33;4.57;;;;;;;6.58;66.14;98732.88;6218984;28;20199;-66
2021/11/19 00:11:41;;;;;;;5.33;4.83;;;;;;;6.56;66.68;98759.19;6218057;28;20197;-66
2021/11/19 00:14:43;;;;;;;6.73;5.33;;;;;;;6.60;66.30;98746.75;6218516;28;20198;-66
2021/11/19 00:17:46;;;;;;;6.33;5.40;;;;;;;6.61;66.40;98751.06;6222339;28;20194;-66
2021/11/19 00:20:49;;;;;;;5.57;5.00;;;;;;;6.59;66.16;98751.16;6223060;28;20280;-67
2021/11/19 00:23:52;;;;;;;6.23;5.30;;;;;;;6.62;66.11;98753.63;6223148;28;20184;-66
2021/11/19 00:26:55;;;;;;;8.27;6.10;;;;;;;6.66;66.08;98757.81;6223044;28;20201;-66
2021/11/19 00:29:57;;;;;;;6.67;5.97;;;;;;;6.61;66.76;98749.31;6221741;28;20204;-67
2021/11/19 00:32:59;;;;;;;7.57;5.33;;;;;;;6.60;66.87;98752.00;6221051;28;21186;-66
2021/11/19 00:36:02;;;;;;;6.07;5.33;;;;;;;6.54;67.00;98745.28;6222948;28;20279;-67
2021/11/19 00:39:17;;;;;;;6.47;5.77;;;;;;;6.56;66.73;98760.94;6222130;28;20193;-68
2021/11/19 00:42:19;;;;;;;6.13;5.27;;;;;;;6.56;66.83;98755.72;6221287;28;20190;-67
2021/11/19 00:45:24;;;;;;;6.23;5.13;;;;;;;6.54;67.21;98753.16;6213177;28;20253;-66
2021/11/19 00:48:30;;;;;;;8.47;6.50;;;;;;;6.64;66.64;98740.44;6220706;28;20201;-67
2021/11/19 00:51:36;;;;;;;7.77;6.07;;;;;;;6.65;66.90;98731.66;6221181;28;20795;-67
2021/11/19 00:54:38;;;;;;;6.73;5.67;;;;;;;6.69;67.13;98748.13;6220879;28;20216;-67
2021/11/19 00:57:42;;;;;;;7.00;6.27;;;;;;;6.69;66.77;98733.19;6222569;28;20585;-67
2021/11/19 01:00:57;;;;;;;7.43;6.63;;;;;;;6.70;67.07;98719.16;6222245;28;20275;-67
2021/11/19 01:04:01;;;;;;;8.30;6.07;;;;;;;6.71;67.20;98707.75;6221883;28;20765;-66
2021/11/19 01:07:06;;;;;;;8.63;7.47;;;;;;;6.74;67.06;98720.72;6205099;28;20248;-66
2021/11/19 01:10:22;;;;;;;8.17;6.87;;;;;;;6.77;67.13;98717.97;6220573;28;20193;-67
2021/11/19 01:13:25;;;;;;;9.30;7.13;;;;;;;6.79;67.13;98716.09;6220588;28;20224;-66
2021/11/19 01:16:34;;;;;;;9.47;7.83;;;;;;;6.80;67.17;98703.81;6204992;28;20202;-67
2021/11/19 01:20:01;;;;;;;12.67;7.17;;;;;;;6.80;67.38;98719.56;6219872;28;20215;-66
2021/11/19 01:23:10;;;;;;;10.43;8.10;;;;;;;6.78;67.92;98693.44;6220503;28;20205;-66
2021/11/19 01:26:22;;;;;;;11.90;7.83;;;;;;;6.78;67.93;98692.59;6220292;28;20213;-67
2021/11/19 01:29:25;;;;;;;8.33;7.37;;;;;;;6.74;68.10;98697.13;6220847;28;20202;-66
2021/11/19 01:32:28;;;;;;;10.23;7.40;;;;;;;6.75;67.89;98701.44;6219930;28;20240;-66
2021/11/19 01:35:54;;;;;;;10.47;8.00;;;;;;;6.80;67.91;98693.34;6213062;28;20212;-66
2021/11/19 01:39:15;;;;;;;9.97;8.63;;;;;;;6.80;68.02;98699.44;6220017;28;20558;-68
2021/11/19 01:42:36;;;;;;;9.77;8.40;;;;;;;6.85;67.77;98721.06;6221287;28;20662;-66
2021/11/19 01:45:50;;;;;;;10.13;8.43;;;;;;;6.87;67.83;98702.63;6209624;28;20244;-66
2021/11/19 01:48:55;;;;;;;11.23;8.27;;;;;;;6.87;68.10;98713.97;6206216;28;20193;-67
2021/11/19 01:52:11;;;;;;;11.43;8.70;;;;;;;6.89;67.83;98708.63;6219434;28;20710;-67
2021/11/19 01:55:27;;;;;;;10.33;8.37;;;;;;;6.87;67.94;98694.75;6219425;28;20208;-66
2021/11/19 01:58:36;;;;;;;9.43;8.10;;;;;;;6.85;68.36;98699.22;6220009;28;20217;-66
2021/11/19 02:01:45;;;;;;;10.47;8.93;;;;;;;6.82;68.47;98691.50;6218931;28;20197;-67
2021/11/19 02:04:57;;;;;;;12.20;9.93;;;;;;;6.82;68.37;98696.75;6219935;28;20324;-65
2021/11/19 02:08:13;;;;;;;11.17;9.17;;;;;;;6.78;67.99;98693.44;6219657;28;20678;-67
2021/11/19 02:11:33;;;;;;;11.00;9.50;;;;;;;6.76;68.69;98691.81;6219156;28;20807;-66
2021/11/19 02:14:54;;;;;;;10.90;8.87;;;;;;;6.78;68.68;98713.56;6217533;28;20253;-66
2021/11/19 02:18:02;;;;;;;13.37;9.97;;;;;;;6.82;68.71;98688.88;6215842;28;20201;-65
2021/11/19 02:21:25;;;;;;;12.30;9.80;;;;;;;6.81;69.06;98702.91;6219241;28;20291;-67
2021/11/19 02:24:34;;;;;;;13.23;10.10;;;;;;;6.82;68.98;98712.47;6219049;28;20217;-66
2021/11/19 02:27:44;;;;;;;11.97;9.57;;;;;;;6.84;69.16;98690.50;6219495;28;20683;-66
2021/11/19 02:31:08;;;;;;;13.07;10.10;;;;;;;6.81;69.95;98687.16;6218622;28;20566;-66
2021/11/19 02:34:10;;;;;;;14.67;10.70;;;;;;;6.75;70.67;98680.47;6219028;28;20215;-68
2021/11/19 02:37:24;;;;;;;13.43;11.20;;;;;;;6.74;70.94;98680.53;6220051;28;20199;-67
2021/11/19 02:40:30;;;;;;;13.67;11.10;;;;;;;6.68;70.97;98673.81;6218251;28;20322;-70
2021/11/19 02:43:48;;;;;;;13.47;10.37;;;;;;;6.61;71.68;98678.50;6219965;28;20278;-65
2021/11/19 02:46:57;;;;;;;13.13;10.27;;;;;;;6.57;72.00;98658.59;6202624;28;20224;-66
2021/11/19 02:50:00;;;;;;;13.50;10.33;;;;;;;6.54;72.12;98645.63;6218623;28;20674;-66
2021/11/19 02:53:05;;;;;;;14.60;10.93;;;;;;;6.56;72.13;98642.94;6218238;28;20735;-67
2021/11/19 02:56:07;;;;;;;13.40;10.27;;;;;;;6.51;72.25;98644.91;6218448;28;20216;-66
2021/11/19 02:59:13;;;;;;;13.83;10.50;;;;;;;6.53;71.78;98624.72;6218560;28;20194;-67
2021/11/19 03:02:23;;;;;;;14.43;11.50;;;;;;;6.50;72.20;98638.81;6218915;28;20195;-68
2021/11/19 03:05:29;;;;;;;13.63;10.63;;;;;;;6.49;71.79;98637.13;6218175;28;20761;-66
2021/11/19 03:08:33;;;;;;;14.00;10.83;;;;;;;6.49;71.87;98662.53;6217995;28;20200;-66
2021/11/19 03:11:36;;;;;;;12.87;9.93;;;;;;;6.59;71.99;98633.13;6201754;28;20197;-66
2021/11/19 03:14:40;;;;;;;12.47;9.33;;;;;;;6.57;71.86;98642.88;6216096;28;20232;-66
2021/11/19 03:17:42;;;;;;;14.57;10.90;;;;;;;6.64;71.55;98638.16;6194807;28;20216;-66
2021/11/19 03:20:47;;;;;;;11.70;9.83;;;;;;;6.69;71.10;98622.22;6217895;28;20297;-67
2021/11/19 03:23:53;;;;;;;11.70;9.83;;;;;;;6.70;70.75;98627.34;6217713;28;20668;-66
2021/11/19 03:26:56;;;;;;;12.83;10.20;;;;;;;6.72;71.12;98641.25;6219272;28;20193;-67
2021/11/19 03:29:59;;;;;;;11.13;9.20;;;;;;;6.73;70.52;98648.19;6217817;28;20196;-67
2021/11/19 03:33:02;;;;;;;11.50;10.23;;;;;;;6.77;70.86;98657.63;6219653;28;20262;-66
2021/11/19 03:36:07;;;;;;;11.57;9.77;;;;;;;6.76;71.06;98637.56;6217941;28;20212;-66
2021/11/19 03:39:10;;;;;;;12.17;9.63;;;;;;;6.77;70.78;98656.78;6217725;28;20240;-66
2021/11/19 03:42:14;;;;;;;13.73;10.33;;;;;;;6.83;70.32;98632.84;6218876;28;20268;-66
2021/11/19 03:45:20;;;;;;;15.20;10.93;;;;;;;6.85;70.15;98646.75;6211132;28;20225;-66
2021/11/19 03:48:23;;;;;;;13.90;10.67;;;;;;;6.88;70.34;98663.19;6217888;28;20198;-68
2021/11/19 03:51:35;;;;;;;12.30;9.87;;;;;;;6.92;69.78;98667.34;6218972;28;20206;-67
2021/11/19 03:54:40;;;;;;;14.07;11.20;;;;;;;6.95;69.70;98682.09;6222583;28;20240;-65
2021/11/19 03:57:45;;;;;;;11.57;9.63;;;;;;;6.98;69.78;98664.44;6222502;28;20232;-67
2021/11/19 04:01:04;;;;;;;12.83;10.97;;;;;;;6.94;69.82;98668.13;6221743;28;20297;-66
2021/11/19 04:04:09;;;;;;;13.73;10.13;;;;;;;6.95;69.61;98672.44;6222653;28;20198;-66
2021/11/19 04:07:13;;;;;;;14.20;11.30;;;;;;;6.95;69.53;98672.44;6221932;28;20239;-66
2021/11/19 04:10:18;;;;;;;15.03;11.53;;;;;;;6.95;70.04;98682.09;6222290;28;20204;-66
2021/11/19 04:13:22;;;;;;;15.37;11.67;;;;;;;6.94;69.69;98681.25;6223328;28;20199;-66
2021/11/19 04:16:31;;;;;;;13.53;11.13;;;;;;;6.94;70.10;98673.38;6207556;28;20233;-67
2021/11/19 04:19:33;;;;;;;15.83;11.07;;;;;;;6.92;70.02;98682.25;6222259;28;20202;-66
2021/11/19 04:22:35;;;;;;;16.50;11.37;;;;;;;6.94;69.54;98683.03;6221393;28;20574;-65
2021/11/19 04:25:38;;;;;;;15.90;12.03;;;;;;;6.95;69.81;98679.47;6222143;28;20208;-65
2021/11/19 04:28:43;;;;;;;14.60;11.80;;;;;;;6.95;69.96;98663.72;6221436;28;20570;-67
2021/11/19 04:31:57;;;;;;;12.97;10.87;;;;;;;6.98;69.44;98687.22;6221509;28;20193;-66
2021/11/19 04:35:00;;;;;;;12.97;10.77;;;;;;;6.97;70.31;98683.72;6221671;28;20344;-67
2021/11/19 04:38:06;;;;;;;14.33;10.57;;;;;;;6.91;70.81;98685.78;6221274;28;20228;-66
2021/11/19 04:41:09;;;;;;;15.63;10.67;;;;;;;6.85;71.60;98692.19;6221198;28;20289;-66
2021/11/19 04:44:11;;;;;;;13.40;10.70;;;;;;;6.81;71.42;98676.66;6222377;28;20501;-67
2021/11/19 04:47:17;;;;;;;15.13;10.97;;;;;;;6.82;70.94;98684.47;6200066;28;20226;-68
2021/11/19 04:50:21;;;;;;;13.67;10.70;;;;;;;6.83;70.43;98680.94;6223244;28;20195;-66
2021/11/19 04:53:25;;;;;;;11.40;9.30;;;;;;;6.87;70.22;98681.63;6220721;28;20227;-66
2021/11/19 04:56:28;;;;;;;11.97;9.27;;;;;;;6.84;70.94;98672.13;6221242;28;20257;-66
2021/11/19 04:59:31;;;;;;;11.40;9.00;;;;;;;6.90;69.92;98689.34;6220796;28;20251;-65
2021/11/19 05:02:34;;;;;;;13.43;9.27;;;;;;;6.95;69.50;98695.22;6195345;28;20213;-66
2021/11/19 05:05:49;;;;;;;9.90;7.47;;;;;;;6.94;69.70;98685.66;6208178;28;20197;-67
2021/11/19 05:08:52;;;;;;;10.63;8.93;;;;;;;6.95;69.64;98687.34;6220840;28;20203;-66
2021/11/19 05:12:08;;;;;;;13.93;9.50;;;;;;;6.95;69.45;98675.06;6220488;28;20201;-69
2021/11/19 05:15:13;;;;;;;11.60;8.27;;;;;;;6.96;68.77;98665.44;6202320;28;20296;-66
2021/11/19 05:18:16;;;;;;;9.27;7.83;;;;;;;6.98;69.25;98667.06;6222039;28;20192;-66
2021/11/19 05:21:20;;;;;;;10.17;7.57;;;;;;;6.98;68.88;98661.81;6220007;28;20197;-66
2021/11/19 05:24:22;;;;;;;10.43;7.87;;;;;;;7.03;68.40;98661.56;6220753;28;20203;-67
2021/11/19 05:27:27;;;;;;;10.23;8.30;;;;;;;7.00;69.01;98654.69;6222545;28;20193;-67
2021/11/19 05:30:30;;;;;;;11.07;8.90;;;;;;;7.01;68.53;98658.16;6221251;28;20198;-66
2021/11/19 05:33:39;;;;;;;10.57;8.27;;;;;;;7.04;68.27;98647.53;6220155;28;20210;-66
2021/11/19 05:36:44;;;;;;;10.83;8.23;;;;;;;7.04;68.45;98650.16;6220189;28;20347;-67
2021/11/19 05:39:47;;;;;;;9.53;8.33;;;;;;;7.07;67.65;98630.78;6219969;28;20243;-66
2021/11/19 05:42:51;;;;;;;9.50;7.13;;;;;;;7.08;67.74;98649.06;6219473;28;20565;-65
2021/11/19 05:45:53;;;;;;;9.07;7.33;;;;;;;7.05;67.38;98636.09;6210149;28;20263;-66
2021/11/19 05:49:01;;;;;;;8.87;7.40;;;;;;;7.06;67.95;98629.06;6220004;28;20193;-67
2021/11/19 05:52:05;;;;;;;9.17;7.60;;;;;;;7.10;67.55;98633.22;6219353;28;20674;-66
2021/11/19 05:55:15;;;;;;;12.50;8.20;;;;;;;7.15;67.04;98647.81;6219630;28;20704;-67
2021/11/19 05:58:19;;;;;;;11.33;7.33;;;;;;;7.19;66.37;98651.13;6220750;28;20658;-66
2021/11/19 06:01:23;;;;;;;8.77;7.57;;;;;;;7.24;66.16;98641.25;6219130;28;20199;-66
2021/11/19 06:04:39;;;;;;;10.23;8.33;;;;;;;7.27;66.09;98626.19;6221101;28;20197;-66
2021/11/19 06:08:03;;;;;;;10.33;8.07;;;;;;;7.29;65.78;98645.31;6220365;28;20205;-65
2021/11/19 06:11:10;;;;;;;10.03;8.20;;;;;;;7.29;66.11;98639.22;6220114;28;20751;-67
2021/11/19 06:14:24;;;;;;;10.03;8.17;;;;;;;7.32;65.84;98637.31;6218865;28;20275;-66
2021/11/19 06:17:33;;;;;;;10.67;8.63;;;;;;;7.30;65.74;98626.03;6211464;28;20213;-67
2021/11/19 06:20:43;;;;;;;11.40;9.00;;;;;;;7.33;65.58;98631.13;6194469;28;20666;-66
2021/11/19 06:23:53;;;;;;;11.53;8.50;;;;;;;7.37;65.43;98632.69;6196226;28;20190;-66
2021/11/19 06:26:56;;;;;;;10.57;8.33;;;;;;;7.41;65.60;98649.09;6194906;28;20214;-65
2021/11/19 06:29:59;;;;;;;9.93;8.27;;;;;;;7.44;65.40;98650.72;6194308;28;20453;-66
2021/11/19 06:33:04;;;;;;;11.03;8.27;;;;;;;7.41;65.35;98688.50;6194130;28;20243;-66
2021/11/19 06:36:07;;;;;;;10.53;8.80;;;;;;;7.49;65.33;98652.16;6217480;28;20214;-68
2021/11/19 06:39:11;;;;;;;11.70;8.37;;;;;;;7.54;65.19;98654.56;6219476;28;20200;-67
2021/11/19 06:42:14;;;;;;;11.30;8.47;;;;;;;7.51;65.94;98666.06;6217648;28;20202;-65
2021/11/19 06:45:38;;;;;;;12.07;9.03;;;;;;;7.51;65.62;98681.84;6209128;28;20230;-67
2021/11/19 06:48:49;;;;;;;12.93;9.80;;;;;;;7.53;65.61;98674.72;6204034;28;20205;-66
2021/11/19 06:52:08;;;;;;;11.10;9.03;;;;;;;7.55;65.30;98675.50;6217523;28;20218;-69
2021/11/19 06:55:33;;;;;;;11.40;9.67;;;;;;;7.53;65.48;98679.97;6218038;28;20269;-66
2021/11/19 06:58:59;;;;;;;9.50;8.50;;;;;;;7.53;66.02;98679.97;6213392;28;20660;-66
2021/11/19 07:02:03;;;;;;;11.47;8.67;;;;;;;7.53;66.05;98682.63;6217380;28;20208;-66
2021/11/19 07:05:07;;;;;;;12.47;9.20;;;;;;;7.55;65.72;98709.66;6201937;28;20512;-69
2021/11/19 07:08:11;;;;;;;10.77;8.67;;;;;;;7.59;65.41;98687.53;6217924;28;20570;-66
2021/11/19 07:11:18;;;;;;;11.90;9.07;;;;;;;7.62;65.27;98686.53;6218521;28;20677;-65
2021/11/19 07:14:20;;;;;;;11.60;8.83;;;;;;;7.67;64.22;98697.66;6217756;28;20219;-65
2021/11/19 07:17:22;;;;;;;12.07;9.43;;;;;;;7.72;64.17;98690.38;6209936;28;20692;-66
2021/11/19 07:20:28;;;;;;;10.50;8.03;;;;;;;7.72;64.75;98699.13;6218170;28;20228;-66
2021/11/19 07:23:30;;;;;;;9.53;7.87;;;;;;;7.75;64.84;98683.19;6217327;28;20209;-66
2021/11/19 07:26:34;;;;;;;9.30;7.67;;;;;;;7.77;64.01;98707.63;6217951;28;20194;-65
2021/11/19 07:29:37;;;;;;;10.13;8.17;;;;;;;7.79;64.73;98711.00;6217315;28;20198;-66
2021/11/19 07:33:09;;;;;;;12.03;8.90;;;;;;;7.85;63.78;98707.22;6165119;28;20210;-65
2021/11/19 07:36:30;;;;;;;12.33;9.43;;;;;;;7.91;63.47;98711.28;6210231;28;20662;-66
2021/11/19 07:39:51;;;;;;;11.07;8.67;;;;;;;7.98;63.54;98700.38;6217278;28;20265;-65
2021/11/19 07:43:00;;;;;;;10.40;7.77;;;;;;;8.05;63.48;98704.38;6216833;28;20174;-66
2021/11/19 07:46:18;;;;;;;9.17;7.77;;;;;;;8.12;62.67;98713.63;6201908;28;20241;-65
2021/11/19 07:49:24;;;;;;;9.80;8.50;;;;;;;8.20;63.41;98689.53;6216896;28;20235;-66
2021/11/19 07:52:30;;;;;;;9.57;7.63;;;;;;;8.25;63.33;98691.91;6216476;28;20761;-65
2021/11/19 07:55:33;;;;;;;8.73;7.10;;;;;;;8.32;63.07;98724.84;6217261;28;20631;-65
2021/11/19 07:58:35;;;;;;;8.37;7.43;;;;;;;8.37;62.74;98721.06;6217425;28;20190;-66
2021/11/19 08:01:39;;;;;;;10.30;8.30;;;;;;;8.42;62.11;98716.38;6216397;28;20207;-72
2021/11/19 08:04:42;;;;;;;9.57;7.90;;;;;;;8.45;62.29;98707.47;6218882;28;20189;-65
2021/11/19 08:07:54;;;;;;;9.47;7.23;;;;;;;8.43;61.71;98704.94;6217087;28;20747;-66
2021/11/19 08:11:07;;;;;;;9.13;7.83;;;;;;;8.47;61.77;98717.00;6216205;28;20195;-65
2021/11/19 08:14:10;;;;;;;9.53;8.20;;;;;;;8.45;61.58;98716.22;6218357;28;20224;-66
2021/11/19 08:17:28;;;;;;;8.13;7.27;;;;;;;8.55;61.25;98718.34;6194024;28;20262;-66
2021/11/19 08:20:39;;;;;;;9.63;7.57;;;;;;;8.62;60.87;98696.88;6191874;28;20216;-65
2021/11/19 08:23:48;;;;;;;10.23;8.23;;;;;;;8.64;60.92;98726.56;6214731;28;20721;-66
2021/11/19 08:27:07;;;;;;;9.50;7.30;;;;;;;8.58;61.51;98712.91;6218041;28;20195;-66
2021/11/19 08:30:17;;;;;;;8.97;7.93;;;;;;;8.57;61.08;98692.81;6217954;28;20546;-67
2021/11/19 08:33:19;;;;;;;9.77;8.03;;;;;;;8.62;61.05;98685.50;6217389;28;20688;-66
2021/11/19 08:36:24;;;;;;;9.43;7.80;;;;;;;8.61;61.38;98676.75;6218006;28;20637;-67
2021/11/19 08:39:28;;;;;;;9.30;7.90;;;;;;;8.70;61.46;98662.22;6222592;28;20289;-67
2021/11/19 08:42:30;;;;;;;8.03;7.20;;;;;;;8.68;60.91;98696.53;6221461;28;20199;-66
2021/11/19 08:45:32;;;;;;;8.07;6.83;;;;;;;8.85;60.60;98693.78;6217485;28;20232;-65
2021/11/19 08:48:36;;;;;;;8.57;7.33;;;;;;;8.99;59.90;98702.66;6222245;28;20225;-66
2021/11/19 08:51:39;;;;;;;8.33;7.03;;;;;;;9.12;60.49;98717.66;6221932;28;20192;-66
2021/11/19 08:54:42;;;;;;;9.33;7.03;;;;;;;9.19;59.69;98712.88;6222291;28;20215;-65
2021/11/19 08:57:45;;;;;;;8.50;7.17;;;;;;;9.25;59.31;98721.31;6221851;28;20200;-66
2021/11/19 09:00:48;;;;;;;8.53;7.30;;;;;;;9.28;59.37;98722.91;6220653;28;20239;-65
2021/11/19 09:03:51;;;;;;;9.23;7.33;;;;;;;9.25;58.85;98707.28;6221623;28;20196;-66
2021/11/19 09:06:55;;;;;;;7.80;6.30;;;;;;;9.40;59.03;98711.63;6222098;28;20199;-71
2021/11/19 09:09:57;;;;;;;6.93;6.17;;;;;;;9.52;59.06;98707.44;6222019;28;20207;-65
2021/11/19 09:13:05;;;;;;;9.30;7.13;;;;;;;9.53;57.96;98714.41;6221717;28;20197;-65
2021/11/19 09:16:09;;;;;;;10.30;6.97;;;;;;;9.57;58.55;98700.13;6209988;28;20299;-69
2021/11/19 09:19:24;;;;;;;8.07;6.43;;;;;;;9.59;58.31;98701.69;6220134;28;20567;-67
2021/11/19 09:22:40;;;;;;;8.23;6.90;;;;;;;9.75;58.49;98721.88;6197076;28;20240;-66
2021/11/19 09:25:45;;;;;;;8.43;6.50;;;;;;;10.01;58.10;98710.59;6221160;28;20193;-65
2021/11/19 09:28:53;;;;;;;6.93;6.23;;;;;;;10.02;56.73;98716.72;6221594;28;20199;-64
2021/11/19 09:31:57;;;;;;;8.37;6.93;;;;;;;10.13;57.61;98711.63;6220791;28;20688;-66
2021/11/19 09:35:00;;;;;;;7.87;6.03;;;;;;;9.90;57.11;98724.41;6221118;28;20259;-65
2021/11/19 09:38:05;;;;;;;7.43;6.60;;;;;;;9.81;57.21;98735.53;6221364;28;20661;-65
2021/11/19 09:41:26;;;;;;;8.27;6.63;;;;;;;9.72;57.89;98735.22;6220462;28;20203;-66
2021/11/19 09:44:52;;;;;;;7.83;6.90;;;;;;;9.75;57.91;98730.63;6220402;28;20247;-66
2021/11/19 09:48:31;;;;;;;8.27;7.03;;;;;;;9.80;57.75;98747.00;6203041;28;20197;-66
2021/11/19 09:51:55;;;;;;;7.23;6.33;;;;;;;9.78;57.89;98740.97;6220589;28;20704;-67
2021/11/19 09:55:31;;;;;;;9.00;6.93;;;;;;;9.56;58.62;98736.16;6219848;28;20220;-66
2021/11/19 09:58:51;;;;;;;9.30;7.60;;;;;;;9.27;59.23;98741.44;6220794;28;20196;-67
2021/11/19 10:02:24;;;;;;;10.93;7.23;;;;;;;9.07;59.51;98732.06;6218549;28;20298;-66
2021/11/19 10:05:36;;;;;;;10.47;7.30;;;;;;;9.00;60.85;98726.28;6221546;28;20850;-68
2021/11/19 10:08:47;;;;;;;9.70;7.23;;;;;;;9.05;59.90;98744.44;6220785;28;20188;-65
2021/11/19 10:12:17;;;;;;;8.57;7.20;;;;;;;9.02;59.44;98718.28;6218591;28;20563;-66
2021/11/19 10:15:24;;;;;;;8.13;7.17;;;;;;;9.11;59.34;98723.03;6220056;28;20212;-65
2021/11/19 10:18:49;;;;;;;9.17;7.20;;;;;;;9.04;59.80;98716.41;6220112;28;20200;-68
2021/11/19 10:22:06;;;;;;;8.10;6.70;;;;;;;9.08;60.46;98702.16;6219861;28;20196;-65
2021/11/19 10:25:17;;;;;;;9.33;7.33;;;;;;;8.99;60.14;98710.56;6218576;28;20208;-66
2021/11/19 10:28:50;;;;;;;8.10;7.13;;;;;;;9.03;60.06;98715.56;6220501;28;20172;-65
2021/11/19 10:31:55;;;;;;;8.33;7.20;;;;;;;9.12;59.92;98695.75;6218136;28;20189;-66
2021/11/19 10:35:17;;;;;;;9.00;7.17;;;;;;;9.23;59.73;98701.25;6219962;28;20199;-65
2021/11/19 10:38:57;;;;;;;8.17;7.00;;;;;;;9.21;59.48;98705.75;6196113;28;20180;-72
2021/11/19 10:42:36;;;;;;;8.17;5.77;;;;;;;9.45;58.94;98699.06;6196229;28;20200;-65
2021/11/19 10:46:20;;;;;;;6.83;6.00;;;;;;;9.56;58.64;98707.16;6210209;28;20237;-65
2021/11/19 10:49:48;;;;;;;9.40;6.33;;;;;;;9.56;58.43;98708.97;6193742;28;20211;-65
2021/11/19 10:53:20;;;;;;;6.33;5.43;;;;;;;9.57;58.38;98687.78;6219217;28;20196;-66
2021/11/19 10:56:43;;;;;;;6.77;5.37;;;;;;;9.65;58.00;98670.66;6219193;28;20197;-65
2021/11/19 11:00:04;;;;;;;6.00;5.40;;;;;;;9.80;57.28;98707.47;6219700;28;20199;-65
2021/11/19 11:03:13;;;;;;;7.77;5.40;;;;;;;9.84;57.01;98653.63;6218773;28;20711;-67
2021/11/19 11:06:17;;;;;;;6.30;5.53;;;;;;;9.94;56.79;98659.16;6219425;28;20187;-65
2021/11/19 11:09:33;;;;;;;7.97;5.37;;;;;;;9.95;56.38;98637.13;6219262;28;20192;-66
2021/11/19 11:12:45;;;;;;;6.20;4.57;;;;;;;10.24;55.59;98620.34;6219334;28;20529;-66
2021/11/19 11:15:57;;;;;;;5.47;4.17;;;;;;;10.14;54.90;98637.69;6207009;28;20245;-65
2021/11/19 11:19:10;;;;;;;5.97;4.60;;;;;;;10.20;54.74;98633.81;6215830;28;20193;-66
2021/11/19 11:22:16;;;;;;;5.10;3.80;;;;;;;10.42;54.77;98620.94;6218731;28;20545;-65
2021/11/19 11:25:35;;;;;;;5.73;4.43;;;;;;;10.55;53.79;98615.72;6218488;28;20184;-70
2021/11/19 11:28:54;;;;;;;6.73;3.47;;;;;;;10.90;53.91;98631.88;6219030;28;20602;-65
2021/11/19 11:32:19;;;;;;;4.37;3.27;;;;;;;11.06;53.55;98625.50;6218336;28;20288;-65
2021/11/19 11:35:37;;;;;;;4.97;3.77;;;;;;;11.16;53.59;98604.59;6218907;28;20292;-66
2021/11/19 11:39:16;;;;;;;4.90;4.00;;;;;;;11.07;53.30;98607.84;6218933;28;20203;-65
2021/11/19 11:42:31;;;;;;;4.13;3.10;;;;;;;11.07;54.00;98608.69;6119134;29;20649;-67
2021/11/19 11:45:48;;;;;;;3.93;3.30;;;;;;;11.22;54.30;98612.09;6109426;29;20236;-66
2021/11/19 11:48:57;;;;;;;5.00;3.57;;;;;;;11.20;54.11;98613.13;6106930;29;20203;-70
2021/11/19 11:52:04;;;;;;;3.60;3.10;;;;;;;11.31;53.57;98624.66;6103047;29;20291;-66
2021/11/19 11:55:18;;;;;;;5.93;3.10;;;;;;;11.37;52.72;98623.41;6119016;29;20226;-67
2021/11/19 11:58:57;;;;;;;4.50;3.30;;;;;;;11.38;53.13;98602.13;6119680;29;20573;-66
2021/11/19 12:02:43;;;;;;;3.23;2.93;;;;;;;11.58;53.21;98607.88;6109530;29;20197;-66
2021/11/19 12:05:56;;;;;;;3.00;2.70;;;;;;;11.71;52.52;98617.47;6134816;29;20209;-65
2021/11/19 12:09:24;;;;;;;3.10;2.50;;;;;;;11.93;52.50;98616.00;6119171;29;20287;-66
2021/11/19 12:12:38;;;;;;;5.43;3.00;;;;;;;11.91;51.63;98617.91;6111045;29;20215;-67
2021/11/19 12:16:10;;;;;;;4.00;2.53;;;;;;;12.13;50.58;98618.91;6118000;29;20611;-66
2021/11/19 12:19:37;;;;;;;2.87;2.57;;;;;;;12.24;50.43;98601.44;6223871;28;20245;-65
2021/11/19 12:22:43;;;;;;;2.97;2.17;;;;;;;12.18;50.64;98597.41;6222715;28;20191;-66
2021/11/19 12:26:11;;;;;;;3.07;2.60;;;;;;;12.33;50.99;98598.09;6222819;28;20265;-65
2021/11/19 12:29:26;;;;;;;3.10;2.80;;;;;;;12.26;50.93;98588.94;6223121;28;20557;-65
2021/11/19 12:32:34;;;;;;;3.10;2.70;;;;;;;12.42;50.53;98597.44;6222225;28;20191;-66
2021/11/19 12:35:46;;;;;;;3.70;2.40;;;;;;;12.50;49.64;98589.78;6222530;28;20212;-65
2021/11/19 12:38:54;;;;;;;2.30;1.80;;;;;;;12.57;50.63;98586.59;6198927;28;20191;-66
2021/11/19 12:42:12;;;;;;;2.30;2.10;;;;;;;12.51;50.49;98564.97;6219823;28;20673;-67
2021/11/19 12:45:28;;;;;;;3.83;2.40;;;;;;;12.37;50.12;98587.19;6214715;28;20240;-65
2021/11/19 12:49:04;;;;;;;3.43;2.40;;;;;;;12.47;50.44;98579.44;6217852;28;20666;-66
2021/11/19 12:52:15;;;;;;;4.43;1.87;;;;;;;13.05;49.22;98554.72;6220662;28;20736;-69
2021/11/19 12:55:36;;;;;;;3.40;2.30;;;;;;;12.48;49.69;98551.97;6222263;28;20219;-66
2021/11/19 12:58:50;;;;;;;2.83;2.17;;;;;;;12.49;50.35;98537.78;6221173;28;20842;-66
2021/11/19 13:02:14;;;;;;;3.13;1.90;;;;;;;12.58;50.49;98532.63;6217032;28;20381;-67
2021/11/19 13:05:24;;;;;;;7.67;1.80;;;;;;;12.30;51.73;98532.16;6212931;28;20245;-65
2021/11/19 13:08:59;;;;;;;1.53;1.40;;;;;;;12.01;53.24;98535.13;6211217;28;20663;-66
2021/11/19 13:12:29;;;;;;;1.93;1.57;;;;;;;11.70;54.27;98528.50;6221513;28;20196;-72
2021/11/19 13:15:38;;;;;;;4.43;1.73;;;;;;;11.55;55.17;98536.69;6210817;28;20690;-66
2021/11/19 13:18:44;;;;;;;3.43;1.57;;;;;;;11.51;55.32;98524.63;6209316;28;20587;-65
2021/11/19 13:21:47;;;;;;;3.10;2.00;;;;;;;11.56;55.36;98541.88;6221058;28;20650;-68
2021/11/19 13:24:53;;;;;;;3.73;1.90;;;;;;;11.61;55.07;98530.97;6220501;28;20562;-66
2021/11/19 13:27:56;;;;;;;2.07;1.50;;;;;;;11.46;55.30;98538.19;6221449;28;20595;-67
2021/11/19 13:31:20;;;;;;;2.23;1.60;;;;;;;11.31;55.93;98534.81;6219708;28;20191;-65
2021/11/19 13:34:26;;;;;;;1.60;1.23;;;;;;;11.29;56.04;98538.50;6221596;28;20677;-66
2021/11/19 13:37:34;;;;;;;2.53;1.80;;;;;;;11.23;56.45;98531.03;6220801;28;20234;-67
2021/11/19 13:40:42;;;;;;;2.33;1.50;;;;;;;11.14;56.65;98563.34;6220928;28;20208;-65
2021/11/19 13:43:48;;;;;;;2.90;1.77;;;;;;;11.13;56.59;98543.16;6220421;28;20198;-70
2021/11/19 13:46:52;;;;;;;1.97;1.63;;;;;;;11.09;56.57;98553.09;6201547;28;20598;-66
2021/11/19 13:50:13;;;;;;;4.07;2.13;;;;;;;10.92;57.17;98522.56;6221123;28;20206;-65
2021/11/19 13:53:22;;;;;;;2.63;2.27;;;;;;;10.72;58.04;98542.38;6220335;28;20800;-65
2021/11/19 13:56:42;;;;;;;2.53;1.90;;;;;;;10.72;57.39;98536.25;6220715;28;20285;-65
2021/11/19 13:59:53;;;;;;;1.97;1.77;;;;;;;10.54;57.75;98540.13;6220802;28;20193;-65
2021/11/19 14:02:56;;;;;;;2.00;1.80;;;;;;;10.57;57.98;98532.03;6220454;28;20268;-66
2021/11/19 14:06:10;;;;;;;2.90;1.90;;;;;;;10.52;58.42;98552.59;6220151;28;20216;-65
2021/11/19 14:09:13;;;;;;;2.53;2.27;;;;;;;10.38;58.50;98547.38;6219168;28;20194;-64
2021/11/19 14:12:22;;;;;;;2.47;2.20;;;;;;;10.23;59.11;98554.50;6220150;28;20525;-65
2021/11/19 14:15:37;;;;;;;3.77;2.60;;;;;;;10.17;59.42;98561.00;6211977;28;20202;-65
2021/11/19 14:18:49;;;;;;;4.13;2.40;;;;;;;10.06;59.89;98566.09;6196089;28;20217;-65
2021/11/19 14:22:02;;;;;;;2.27;1.57;;;;;;;10.10;59.38;98562.31;6208470;28;20193;-65
2021/11/19 14:25:19;;;;;;;3.03;2.20;;;;;;;10.02;59.90;98554.03;6208385;28;20197;-65
2021/11/19 14:28:48;;;;;;;3.03;2.00;;;;;;;9.99;59.58;98578.81;6215002;28;20236;-66
2021/11/19 14:31:55;;;;;;;2.63;2.13;;;;;;;9.93;60.08;98554.63;6211991;28;20668;-66
2021/11/19 14:35:02;;;;;;;3.17;2.10;;;;;;;9.86;59.77;98556.81;6219872;28;20287;-63
2021/11/19 14:38:28;;;;;;;2.53;1.83;;;;;;;9.80;60.03;98572.16;6218195;28;20200;-66
2021/11/19 14:41:42;;;;;;;2.10;1.60;;;;;;;9.73;60.41;98552.41;6219411;28;20621;-65
2021/11/19 14:45:02;;;;;;;3.80;1.97;;;;;;;9.55;61.75;98568.44;6216308;28;20589;-65
2021/11/19 14:48:28;;;;;;;3.97;2.00;;;;;;;9.44;61.49;98565.63;6208647;28;20291;-66
2021/11/19 14:51:41;;;;;;;1.40;1.30;;;;;;;9.38;62.26;98550.19;6218853;28;20205;-66
2021/11/19 14:54:47;;;;;;;2.00;1.77;;;;;;;9.24;62.54;98576.53;6220126;28;20314;-65
2021/11/19 14:58:03;;;;;;;3.70;1.73;;;;;;;9.17;62.54;98573.44;6219046;28;20215;-65
2021/11/19 15:01:05;;;;;;;2.50;1.50;;;;;;;9.20;62.70;98562.69;6218004;28;20691;-65
2021/11/19 15:04:29;;;;;;;2.40;1.43;;;;;;;9.15;62.27;98561.28;6219508;28;20200;-66